createdAt,value
2018-12-04T00:01:38.736Z,2.60
2018-12-04T00:04:09.564Z,2.93
2018-12-04T00:06:40.568Z,3.73
2018-12-04T00:09:11.402Z,4.97
2018-12-04T00:11:42.249Z,1.47
2018-12-04T00:14:13.053Z,4.33
2018-12-04T00:16:47.995Z,7.37
2018-12-04T00:19:18.810Z,1.97
2018-12-04T00:21:49.721Z,4.70
2018-12-04T00:24:20.820Z,1.50
2018-12-04T00:26:51.702Z,1.47
2018-12-04T00:29:22.646Z,4.57
2018-12-04T00:31:55.824Z,2.10
2018-12-04T00:34:26.910Z,4.17
2018-12-04T00:36:57.867Z,2.60
2018-12-04T00:39:29.004Z,2.13
2018-12-04T00:42:01.293Z,1.90
2018-12-04T00:44:32.302Z,1.77
2018-12-04T00:47:03.733Z,1.13
2018-12-04T00:49:36.930Z,1.10
2018-12-04T00:52:07.912Z,4.37
2018-12-04T00:54:38.749Z,1.33
2018-12-04T00:57:09.587Z,2.50
2018-12-04T00:59:40.543Z,0.93
2018-12-04T01:02:11.697Z,3.23
2018-12-04T01:04:42.572Z,2.80
2018-12-04T01:07:13.442Z,1.90
2018-12-04T01:09:49.116Z,1.23
2018-12-04T01:12:19.937Z,2.83
2018-12-04T01:14:50.782Z,1.57
2018-12-04T01:17:21.753Z,0.90
2018-12-04T01:19:53.810Z,0.77
2018-12-04T01:22:24.726Z,0.87
2018-12-04T01:24:55.546Z,1.67
2018-12-04T01:27:26.396Z,3.10
2018-12-04T01:29:57.260Z,1.20
2018-12-04T01:32:28.112Z,1.10
2018-12-04T01:34:58.906Z,2.90
2018-12-04T01:37:30.159Z,3.17
2018-12-04T01:40:01.309Z,3.43
2018-12-04T01:42:32.227Z,2.53
2018-12-04T01:45:03.841Z,2.40
2018-12-04T01:47:34.884Z,1.13
2018-12-04T01:50:06.482Z,2.17
2018-12-04T01:52:37.533Z,1.90
2018-12-04T01:55:08.543Z,3.97
2018-12-04T01:57:39.975Z,1.93
2018-12-04T02:00:11.146Z,2.47
2018-12-04T02:02:42.132Z,2.20
2018-12-04T02:05:13.522Z,1.73
2018-12-04T02:07:46.200Z,3.07
2018-12-04T02:10:17.303Z,1.60
2018-12-04T02:12:48.621Z,2.13
2018-12-04T02:15:19.404Z,2.53
2018-12-04T02:17:50.240Z,1.03
2018-12-04T02:20:21.082Z,4.20
2018-12-04T02:22:52.404Z,2.30
2018-12-04T02:25:23.306Z,2.33
2018-12-04T02:27:54.070Z,1.87
2018-12-04T02:30:26.213Z,3.03
2018-12-04T02:32:57.138Z,2.63
2018-12-04T02:35:28.166Z,1.87
2018-12-04T02:37:59.306Z,3.33
2018-12-04T02:40:30.160Z,3.07
2018-12-04T02:43:00.987Z,2.70
2018-12-04T02:45:31.816Z,3.00
2018-12-04T02:48:02.923Z,3.07
2018-12-04T02:50:33.930Z,2.53
2018-12-04T02:53:07.000Z,1.37
2018-12-04T02:55:38.014Z,3.03
2018-12-04T02:58:08.855Z,2.13
2018-12-04T03:00:40.062Z,3.07
2018-12-04T03:03:10.907Z,1.77
2018-12-04T03:05:41.850Z,2.17
2018-12-04T03:08:13.059Z,2.60
2018-12-04T03:10:43.982Z,2.77
2018-12-04T03:13:14.834Z,2.93
2018-12-04T03:15:48.192Z,4.20
2018-12-04T03:18:18.994Z,5.03
2018-12-04T03:20:49.888Z,6.87
2018-12-04T03:23:23.144Z,3.40
2018-12-04T03:25:53.999Z,3.07
2018-12-04T03:28:24.827Z,2.97
2018-12-04T03:30:55.837Z,3.37
2018-12-04T03:33:37.346Z,5.93
2018-12-04T03:36:08.344Z,3.43
2018-12-04T03:38:39.221Z,3.27
2018-12-04T03:41:10.194Z,2.80
2018-12-04T03:43:41.530Z,2.60
2018-12-04T03:46:12.586Z,3.30
2018-12-04T03:48:43.675Z,3.63
2018-12-04T03:51:14.774Z,3.60
2018-12-04T03:53:46.501Z,4.47
2018-12-04T03:56:20.153Z,2.80
2018-12-04T03:58:51.111Z,5.03
2018-12-04T04:01:22.148Z,3.43
2018-12-04T04:03:53.098Z,3.33
2018-12-04T04:06:23.943Z,5.57
2018-12-04T04:08:57.220Z,1.87
2018-12-04T04:11:29.249Z,1.73
2018-12-04T04:14:00.448Z,3.47
2018-12-04T04:16:31.564Z,3.37
2018-12-04T04:19:02.542Z,3.40
2018-12-04T04:21:34.110Z,4.37
2018-12-04T04:24:05.198Z,4.33
2018-12-04T04:26:39.119Z,5.30
2018-12-04T04:29:10.156Z,3.33
2018-12-04T04:31:41.231Z,3.40
2018-12-04T04:34:12.534Z,3.13
2018-12-04T04:36:43.586Z,4.07
2018-12-04T04:39:14.617Z,3.97
2018-12-04T04:41:45.456Z,3.23
2018-12-04T04:44:16.446Z,3.87
2018-12-04T04:46:47.813Z,5.07
2018-12-04T04:49:18.751Z,7.70
2018-12-04T04:51:49.689Z,4.67
2018-12-04T04:54:21.015Z,6.17
2018-12-04T04:56:51.945Z,2.93
2018-12-04T04:59:22.882Z,2.00
2018-12-04T05:01:53.955Z,6.70
2018-12-04T05:04:24.840Z,4.57
2018-12-04T05:06:56.283Z,2.83
2018-12-04T05:09:27.243Z,4.60
2018-12-04T05:11:58.211Z,4.73
2018-12-04T05:14:29.261Z,11.37
2018-12-04T05:17:00.278Z,7.33
2018-12-04T05:19:31.300Z,7.20
2018-12-04T05:22:02.701Z,5.80
2018-12-04T05:24:33.572Z,7.50
2018-12-04T05:27:04.715Z,6.63
2018-12-04T05:29:37.851Z,5.50
2018-12-04T05:32:08.920Z,4.67
2018-12-04T05:34:39.891Z,5.57
2018-12-04T05:37:11.062Z,4.20
2018-12-04T05:39:44.419Z,7.20
2018-12-04T05:42:15.688Z,4.23
2018-12-04T05:44:46.835Z,4.10
2018-12-04T05:47:17.874Z,5.63
2018-12-04T05:49:49.465Z,9.43
2018-12-04T05:52:20.823Z,6.87
2018-12-04T05:54:51.723Z,7.27
2018-12-04T05:57:22.670Z,3.73
2018-12-04T06:00:00.414Z,4.23
2018-12-04T06:02:31.476Z,2.57
2018-12-04T06:05:02.397Z,4.70
2018-12-04T06:07:35.743Z,5.03
2018-12-04T06:10:07.417Z,6.43
2018-12-04T06:12:38.612Z,2.60
2018-12-04T06:15:09.986Z,2.40
2018-12-04T06:17:42.277Z,3.27
2018-12-04T06:20:13.234Z,3.40
2018-12-04T06:22:44.186Z,3.57
2018-12-04T06:25:15.421Z,2.30
2018-12-04T06:27:47.930Z,2.37
2018-12-04T06:30:18.784Z,1.97
2018-12-04T06:32:51.185Z,3.33
2018-12-04T06:35:22.506Z,2.10
2018-12-04T06:37:53.772Z,1.23
2018-12-04T06:40:24.623Z,1.43
2018-12-04T06:42:56.009Z,1.83
2018-12-04T06:45:26.895Z,1.90
2018-12-04T06:47:57.818Z,1.53
2018-12-04T06:50:29.267Z,1.77
2018-12-04T06:53:00.121Z,0.70
2018-12-04T06:55:31.070Z,3.07
2018-12-04T06:58:03.868Z,1.13
2018-12-04T07:00:34.888Z,2.67
2018-12-04T07:03:05.926Z,0.93
2018-12-04T07:05:39.122Z,2.63
2018-12-04T07:08:09.959Z,1.57
2018-12-04T07:10:40.827Z,2.17
2018-12-04T07:13:14.071Z,1.80
2018-12-04T07:15:48.071Z,2.67
2018-12-04T07:18:18.947Z,3.73
2018-12-04T07:20:50.529Z,4.30
2018-12-04T07:23:23.155Z,2.93
2018-12-04T07:25:53.974Z,2.90
2018-12-04T07:28:25.454Z,2.67
2018-12-04T07:30:56.519Z,1.70
2018-12-04T07:33:28.523Z,2.20
2018-12-04T07:36:00.845Z,0.97
2018-12-04T07:38:31.907Z,2.30
2018-12-04T07:41:04.632Z,1.30
2018-12-04T07:43:41.022Z,2.03
2018-12-04T07:46:11.937Z,1.17
2018-12-04T07:48:43.872Z,1.10
2018-12-04T07:51:14.737Z,1.13
2018-12-04T07:53:46.147Z,3.87
2018-12-04T07:56:17.219Z,2.87
2018-12-04T07:58:50.502Z,2.03
2018-12-04T08:01:22.476Z,1.17
2018-12-04T08:03:54.770Z,2.13
2018-12-04T08:06:31.423Z,2.20
2018-12-04T08:09:02.835Z,2.20
2018-12-04T08:11:34.071Z,2.57
2018-12-04T08:14:05.284Z,2.17
2018-12-04T08:16:38.507Z,2.10
2018-12-04T08:19:09.383Z,0.83
2018-12-04T08:21:40.270Z,1.27
2018-12-04T08:24:11.186Z,2.97
2018-12-04T08:26:43.621Z,2.33
2018-12-04T08:29:14.871Z,2.73
2018-12-04T08:31:45.764Z,1.40
2018-12-04T08:34:16.637Z,1.70
2018-12-04T08:36:48.005Z,2.70
2018-12-04T08:39:23.299Z,2.27
2018-12-04T08:42:00.127Z,4.63
2018-12-04T08:44:36.286Z,3.37
2018-12-04T08:47:09.794Z,3.43
2018-12-04T08:49:40.639Z,1.73
2018-12-04T08:52:12.968Z,1.27
2018-12-04T08:54:43.836Z,2.80
2018-12-04T08:57:14.758Z,2.13
2018-12-04T08:59:47.044Z,1.27
2018-12-04T09:02:17.986Z,2.50
2018-12-04T09:04:50.351Z,3.00
2018-12-04T09:07:21.245Z,3.00
2018-12-04T09:09:55.488Z,3.00
2018-12-04T09:12:31.519Z,1.90
2018-12-04T09:15:07.845Z,2.47
2018-12-04T09:17:44.398Z,2.47
2018-12-04T09:20:20.779Z,3.63
2018-12-04T09:22:55.921Z,1.40
2018-12-04T09:25:29.650Z,1.97
2018-12-04T09:28:04.343Z,1.83
2018-12-04T09:30:39.276Z,2.67
2018-12-04T09:33:12.158Z,3.80
2018-12-04T09:35:50.215Z,1.90
2018-12-04T09:38:24.714Z,1.47
2018-12-04T09:40:59.515Z,4.77
2018-12-04T09:43:33.603Z,2.00
2018-12-04T09:46:10.278Z,2.80
2018-12-04T09:48:41.847Z,1.67
2018-12-04T09:51:14.336Z,2.00
2018-12-04T09:53:52.103Z,1.20
2018-12-04T09:56:26.064Z,1.60
2018-12-04T09:59:01.520Z,3.10
2018-12-04T10:01:34.280Z,1.80
2018-12-04T10:04:10.854Z,2.87
2018-12-04T10:06:46.502Z,1.77
2018-12-04T10:09:23.182Z,2.57
2018-12-04T10:11:59.981Z,1.70
2018-12-04T10:14:36.349Z,2.33
2018-12-04T10:17:09.312Z,2.57
2018-12-04T10:19:44.055Z,2.83
2018-12-04T10:22:16.521Z,4.53
2018-12-04T10:24:47.498Z,2.70
2018-12-04T10:27:18.446Z,1.93
2018-12-04T10:29:50.278Z,2.83
2018-12-04T10:32:21.362Z,2.87
2018-12-04T10:34:52.354Z,1.80
2018-12-04T10:37:23.422Z,3.93
2018-12-04T10:39:54.384Z,2.93
2018-12-04T10:42:27.888Z,2.37
2018-12-04T10:44:58.664Z,1.83
2018-12-04T10:47:29.489Z,1.30
2018-12-04T10:50:08.423Z,2.53
2018-12-04T10:52:39.753Z,3.70
2018-12-04T10:55:10.539Z,3.13
2018-12-04T10:57:45.965Z,4.27
2018-12-04T11:00:21.669Z,5.37
2018-12-04T11:02:54.512Z,4.20
2018-12-04T11:05:29.450Z,2.13
2018-12-04T11:08:00.082Z,1.73
2018-12-04T11:10:30.814Z,3.20
2018-12-04T11:13:01.885Z,4.57
2018-12-04T11:15:32.699Z,3.67
2018-12-04T11:18:03.599Z,2.03
2018-12-04T11:20:35.493Z,3.30
2018-12-04T11:23:07.871Z,3.53
2018-12-04T11:25:50.542Z,2.03
2018-12-04T11:28:29.067Z,4.33
2018-12-04T11:31:05.477Z,2.00
2018-12-04T11:33:38.428Z,3.43
2018-12-04T11:36:12.891Z,4.67
2018-12-04T11:38:47.909Z,4.03
2018-12-04T11:41:22.442Z,2.20
2018-12-04T11:43:58.732Z,2.73
2018-12-04T11:46:36.068Z,5.43
2018-12-04T11:49:11.434Z,2.20
2018-12-04T11:51:45.742Z,1.90
2018-12-04T11:54:21.466Z,3.13
2018-12-04T11:56:56.494Z,4.60
2018-12-04T11:59:33.164Z,5.30
2018-12-04T12:02:10.899Z,2.63
2018-12-04T12:05:31.524Z,3.83
2018-12-04T12:08:13.379Z,3.23
2018-12-04T12:10:47.807Z,3.93
2018-12-04T12:13:23.646Z,5.30
2018-12-04T12:15:54.795Z,2.33
2018-12-04T12:18:25.589Z,1.97
2018-12-04T12:20:56.394Z,4.10
2018-12-04T12:23:27.227Z,2.43
2018-12-04T12:26:03.887Z,4.13
2018-12-04T12:28:40.048Z,3.53
2018-12-04T12:31:16.047Z,5.30
2018-12-04T12:33:52.314Z,7.90
2018-12-04T12:36:28.164Z,2.97
2018-12-04T12:39:03.197Z,4.57
2018-12-04T12:41:38.006Z,3.13
2018-12-04T12:44:14.482Z,2.73
2018-12-04T12:46:51.510Z,5.13
2018-12-04T12:49:34.752Z,5.47
2018-12-04T12:52:21.447Z,3.70
2018-12-04T12:54:58.951Z,4.63
2018-12-04T12:57:34.222Z,5.00
2018-12-04T13:00:05.328Z,5.37
2018-12-04T13:02:37.127Z,4.40
2018-12-04T13:05:21.144Z,2.57
2018-12-04T13:07:51.927Z,3.87
2018-12-04T13:10:22.828Z,4.83
2018-12-04T13:12:53.764Z,4.60
2018-12-04T13:15:24.841Z,7.70
2018-12-04T13:17:55.716Z,7.73
2018-12-04T13:20:26.570Z,7.93
2018-12-04T13:22:57.375Z,4.97
2018-12-04T13:25:45.720Z,6.53
2018-12-04T13:28:16.963Z,5.87
2018-12-04T13:30:47.847Z,8.87
2018-12-04T13:33:18.885Z,6.40
2018-12-04T13:35:51.040Z,3.53
2018-12-04T13:38:39.497Z,3.50
2018-12-04T13:41:33.319Z,5.33
2018-12-04T13:47:07.306Z,4.20
2018-12-04T13:49:43.441Z,5.77
2018-12-04T13:52:18.057Z,5.37
2018-12-04T13:54:51.237Z,4.70
2018-12-04T13:57:22.288Z,5.17
2018-12-04T13:59:56.937Z,6.73
2018-12-04T14:02:32.142Z,6.47
2018-12-04T14:05:10.610Z,9.73
2018-12-04T14:07:45.297Z,6.50
2018-12-04T14:10:27.656Z,5.63
2018-12-04T14:13:04.893Z,9.37
2018-12-04T14:15:38.216Z,7.37
2018-12-04T14:18:10.415Z,8.23
2018-12-04T14:20:47.125Z,7.30
2018-12-04T14:23:23.425Z,6.83
2018-12-04T14:25:57.630Z,6.73
2018-12-04T14:28:33.802Z,7.50
2018-12-04T14:31:09.478Z,10.47
2018-12-04T14:33:46.978Z,7.73
2018-12-04T14:36:21.136Z,10.63
2018-12-04T14:38:59.220Z,6.13
2018-12-04T14:41:33.870Z,8.43
2018-12-04T14:44:11.203Z,6.43
2018-12-04T14:46:49.289Z,5.30
2018-12-04T14:49:25.960Z,4.83
2018-12-04T14:52:03.381Z,4.10
2018-12-04T14:54:42.234Z,4.03
2018-12-04T14:57:14.518Z,5.23
2018-12-04T14:59:52.512Z,5.07
2018-12-04T15:02:27.184Z,3.80
2018-12-04T15:04:58.982Z,4.00
2018-12-04T15:07:32.454Z,3.57
2018-12-04T15:10:10.936Z,3.10
2018-12-04T15:12:51.795Z,4.30
2018-12-04T15:15:24.805Z,5.53
2018-12-04T15:18:04.106Z,3.57
2018-12-04T15:20:36.243Z,5.47
2018-12-04T15:23:08.857Z,4.07
2018-12-04T15:25:45.081Z,4.37
2018-12-04T15:28:19.776Z,5.80
2018-12-04T15:30:54.628Z,5.17
2018-12-04T15:33:26.303Z,4.50
2018-12-04T15:36:00.375Z,5.60
2018-12-04T15:38:34.313Z,4.90
2018-12-04T15:41:10.931Z,3.20
2018-12-04T15:43:45.719Z,5.30
2018-12-04T15:46:18.238Z,7.23
2018-12-04T15:48:54.144Z,6.43
2018-12-04T15:51:28.716Z,3.73
2018-12-04T15:54:04.840Z,4.97
2018-12-04T15:56:38.882Z,4.23
2018-12-04T15:59:10.009Z,4.83
2018-12-04T16:01:40.760Z,6.50
2018-12-04T16:04:11.493Z,5.10
2018-12-04T16:06:42.365Z,5.97
2018-12-04T16:09:17.387Z,5.33
2018-12-04T16:11:54.308Z,6.37
2018-12-04T16:14:26.392Z,4.57
2018-12-04T16:16:58.224Z,5.50
2018-12-04T16:19:29.117Z,7.80
2018-12-04T16:22:00.605Z,5.27
2018-12-04T16:24:31.393Z,7.20
2018-12-04T16:27:02.977Z,6.13
2018-12-04T16:29:34.713Z,5.10
2018-12-04T16:32:06.334Z,8.53
2018-12-04T16:34:37.189Z,7.37
2018-12-04T16:37:08.118Z,4.57
2018-12-04T16:39:39.249Z,8.03
2018-12-04T16:42:11.195Z,7.67
2018-12-04T16:44:41.964Z,7.20
2018-12-04T16:47:13.032Z,6.97
2018-12-04T16:49:44.096Z,9.00
2018-12-04T16:52:14.962Z,9.70
2018-12-04T16:54:45.768Z,10.40
2018-12-04T16:57:21.274Z,8.37
2018-12-04T16:59:52.143Z,10.30
2018-12-04T17:02:22.921Z,8.77
2018-12-04T17:04:54.076Z,7.10
2018-12-04T17:07:27.103Z,6.30
2018-12-04T17:09:57.928Z,6.93
2018-12-04T17:12:28.845Z,7.17
2018-12-04T17:15:07.656Z,7.77
2018-12-04T17:17:41.409Z,11.73
2018-12-04T17:20:15.787Z,10.67
2018-12-04T17:22:50.308Z,11.10
2018-12-04T17:25:24.123Z,8.73
2018-12-04T17:27:58.534Z,9.00
2018-12-04T17:30:33.643Z,7.97
2018-12-04T17:33:05.053Z,10.90
2018-12-04T17:35:41.381Z,11.13
2018-12-04T17:38:19.602Z,10.87
2018-12-04T17:40:54.107Z,11.97
2018-12-04T17:43:26.153Z,11.80
2018-12-04T17:46:01.031Z,12.13
2018-12-04T17:48:38.533Z,10.17
2018-12-04T17:51:19.515Z,11.33
2018-12-04T17:53:51.937Z,13.77
2018-12-04T17:56:24.663Z,13.33
2018-12-04T17:58:56.146Z,12.03
2018-12-04T18:01:27.464Z,10.43
2018-12-04T18:03:58.780Z,13.50
2018-12-04T18:06:33.551Z,11.40
2018-12-04T18:09:06.147Z,11.60
2018-12-04T18:11:37.182Z,11.83
2018-12-04T18:14:08.211Z,11.33
2018-12-04T18:16:38.946Z,9.87
2018-12-04T18:19:12.804Z,14.30
2018-12-04T18:21:48.107Z,12.70
2018-12-04T18:24:24.626Z,14.83
2018-12-04T18:27:01.398Z,12.03
2018-12-04T18:29:41.344Z,10.40
2018-12-04T18:32:13.869Z,13.97
2018-12-04T18:34:49.014Z,11.67
2018-12-04T18:37:23.053Z,12.23
2018-12-04T18:39:58.477Z,12.73
2018-12-04T18:42:33.138Z,11.50
2018-12-04T18:45:09.637Z,10.40
2018-12-04T18:47:44.549Z,11.73
2018-12-04T18:50:15.788Z,12.83
2018-12-04T18:52:47.330Z,14.83
2018-12-04T18:55:20.607Z,13.17
2018-12-04T18:57:51.703Z,15.20
2018-12-04T19:00:22.662Z,14.47
2018-12-04T19:02:56.873Z,13.93
2018-12-04T19:05:34.633Z,14.57
2018-12-04T19:08:10.459Z,13.67
2018-12-04T19:10:52.996Z,14.77
2018-12-04T19:13:27.624Z,18.67
2018-12-04T19:16:05.206Z,21.67
2018-12-04T19:18:38.552Z,15.90
2018-12-04T19:21:19.301Z,13.30
2018-12-04T19:23:53.509Z,17.60
2018-12-04T19:26:26.159Z,19.80
2018-12-04T19:28:57.412Z,23.87
2018-12-04T19:31:29.542Z,16.97
2018-12-04T19:34:00.636Z,12.93
2018-12-04T19:36:55.625Z,14.27
2018-12-04T19:39:32.658Z,17.13
2018-12-04T19:42:52.442Z,13.90
2018-12-04T19:45:32.164Z,17.93
2018-12-04T19:48:04.468Z,14.87
2018-12-04T19:50:36.167Z,15.80
2018-12-04T19:53:08.602Z,17.07
2018-12-04T19:55:42.641Z,18.23
2018-12-04T19:58:24.808Z,18.27
2018-12-04T20:01:02.372Z,18.23
2018-12-04T20:03:41.454Z,13.87
2018-12-04T20:06:14.969Z,20.07
2018-12-04T20:08:53.435Z,18.07
2018-12-04T20:11:29.416Z,16.20
2018-12-04T20:14:06.482Z,18.63
2018-12-04T20:16:41.736Z,20.77
2018-12-04T20:19:20.179Z,18.70
2018-12-04T20:21:59.958Z,20.90
2018-12-04T20:27:19.263Z,20.93
2018-12-04T20:29:53.270Z,18.70
2018-12-04T20:32:30.463Z,20.03
2018-12-04T20:35:07.949Z,18.23
2018-12-04T20:37:44.509Z,19.50
2018-12-04T20:40:20.181Z,17.57
2018-12-04T20:42:54.687Z,16.33
2018-12-04T20:45:29.632Z,16.47
2018-12-04T20:48:06.683Z,19.70
2018-12-04T20:53:10.664Z,20.70
2018-12-04T20:55:44.942Z,18.73
2018-12-04T20:58:21.359Z,19.07
2018-12-04T21:04:08.346Z,17.23
2018-12-04T21:09:50.354Z,15.80
2018-12-04T21:12:23.222Z,14.57
2018-12-04T21:14:57.192Z,15.07
2018-12-04T21:17:36.410Z,18.33
2018-12-04T21:20:10.375Z,17.70
2018-12-04T21:22:44.943Z,19.43
2018-12-04T21:25:21.583Z,22.23
2018-12-04T21:28:01.181Z,20.00
2018-12-04T21:30:44.244Z,19.40
2018-12-04T21:33:19.808Z,15.90
2018-12-04T21:35:56.863Z,16.40
2018-12-04T21:38:32.436Z,18.03
2018-12-04T21:41:10.444Z,17.23
2018-12-04T21:43:45.977Z,15.80
2018-12-04T21:46:22.042Z,14.73
2018-12-04T21:48:52.877Z,17.70
2018-12-04T21:51:23.718Z,15.20
2018-12-04T21:53:54.448Z,18.70
2018-12-04T21:56:25.263Z,15.67
2018-12-04T21:58:56.097Z,18.50
2018-12-04T22:01:26.983Z,19.77
2018-12-04T22:03:58.078Z,18.53
2018-12-04T22:06:31.922Z,15.73
2018-12-04T22:09:04.026Z,16.63
2018-12-04T22:11:36.531Z,16.90
2018-12-04T22:14:07.287Z,20.13
2018-12-04T22:16:38.241Z,21.70
2018-12-04T22:19:15.458Z,16.23
2018-12-04T22:21:46.653Z,15.90
2018-12-04T22:24:17.483Z,22.17
2018-12-04T22:26:48.529Z,20.47
2018-12-04T22:29:19.247Z,20.50
2018-12-04T22:31:50.097Z,22.30
2018-12-04T22:34:23.084Z,19.17
2018-12-04T22:36:53.913Z,15.63
2018-12-04T22:39:27.270Z,16.37
2018-12-04T22:41:58.853Z,17.33
2018-12-04T22:44:31.994Z,17.53
2018-12-04T22:47:03.101Z,20.83
2018-12-04T22:49:34.661Z,16.40
2018-12-04T22:52:06.844Z,14.00
2018-12-04T22:54:37.603Z,18.90
2018-12-04T22:57:08.487Z,14.53
2018-12-04T22:59:40.476Z,15.97
2018-12-04T23:04:33.747Z,15.90
2018-12-04T23:07:04.646Z,18.10
2018-12-04T23:09:35.770Z,18.93
2018-12-04T23:12:07.285Z,19.40
2018-12-04T23:14:38.103Z,26.10
2018-12-04T23:17:08.965Z,22.10
2018-12-04T23:19:40.494Z,22.43
2018-12-04T23:22:11.757Z,23.93
2018-12-04T23:24:42.729Z,25.67
2018-12-04T23:27:13.532Z,24.43
2018-12-04T23:29:44.162Z,26.53
2018-12-04T23:32:15.322Z,29.57
2018-12-04T23:34:46.505Z,24.83
2018-12-04T23:37:18.282Z,24.10
2018-12-04T23:39:48.935Z,22.20
2018-12-04T23:42:19.978Z,23.50
2018-12-04T23:44:50.785Z,21.37
2018-12-04T23:47:21.659Z,25.17
2018-12-04T23:49:52.561Z,22.47
2018-12-04T23:52:23.734Z,18.57
2018-12-04T23:54:54.595Z,20.00
2018-12-04T23:57:25.376Z,22.27
2018-12-04T23:59:56.113Z,19.57
